ANZ8 NZAA-KSFO
Flight info
| Callsign | ANZ8 |
|---|---|
| Flight time | N/A |
| Altitude | 35000 |
| Route | AA G347 TARIB/N0493F340 DCT 30S178E/N0499F350 25S180E/N0498F340 20S179W/N0502F350 15S177W 10S174W 05S169W 00N165W/N0496F370 10N157W 15N149W 20N144W/N0484F390 23N140W 28N135W 32N130W DCT CINNY PIRAT3 |
| Aircraft | B789/H-SDE1E2E3FGHIJ2J3J4J5M1RWXY/LB1D1 |
Departure
| Time | 2026-05-08 01:45 |
|---|---|
| Airport | Auckland International Airport (NZAA) |
Arrival
| Time | N/A |
|---|---|
| Airport | San Francisco International Airport (KSFO) |
| Time | Latitude | Longitude | Altitude | Speed | Heading |
|---|---|---|---|---|---|
| 2026-05-08 01:06 | -37.00759 | 174.78284 | 32 ft | 0 kts | 270° |
| 2026-05-08 01:36 | -37.00759 | 174.78305 | 31 ft | 3 kts | 270° |
| 2026-05-08 01:37 | -37.00759 | 174.78329 | 31 ft | 3 kts | 270° |
| 2026-05-08 01:37 | -37.00759 | 174.78353 | 31 ft | 3 kts | 270° |
| 2026-05-08 01:37 | -37.00759 | 174.78376 | 31 ft | 3 kts | 270° |
| 2026-05-08 01:37 | -37.00759 | 174.78398 | 31 ft | 2 kts | 270° |
| 2026-05-08 01:38 | -37.00759 | 174.78410 | 32 ft | 0 kts | 270° |
| 2026-05-08 01:40 | -37.00761 | 174.78402 | 31 ft | 1 kts | 248° |
| 2026-05-08 01:40 | -37.00776 | 174.78389 | 31 ft | 7 kts | 206° |
| 2026-05-08 01:40 | -37.00837 | 174.78371 | 30 ft | 9 kts | 191° |
| 2026-05-08 01:41 | -37.00896 | 174.78363 | 31 ft | 9 kts | 182° |
| 2026-05-08 01:41 | -37.00965 | 174.78368 | 33 ft | 11 kts | 170° |
| 2026-05-08 01:41 | -37.01042 | 174.78379 | 35 ft | 10 kts | 192° |
| 2026-05-08 01:41 | -37.01101 | 174.78306 | 34 ft | 15 kts | 248° |
| 2026-05-08 01:42 | -37.01142 | 174.78149 | 32 ft | 22 kts | 250° |
| 2026-05-08 01:42 | -37.01197 | 174.77952 | 33 ft | 26 kts | 250° |
| 2026-05-08 01:42 | -37.01259 | 174.77732 | 31 ft | 27 kts | 250° |
| 2026-05-08 01:42 | -37.01321 | 174.77516 | 31 ft | 25 kts | 251° |
| 2026-05-08 01:43 | -37.01375 | 174.77315 | 32 ft | 24 kts | 251° |
| 2026-05-08 01:43 | -37.01423 | 174.77143 | 31 ft | 13 kts | 240° |
| 2026-05-08 01:43 | -37.01495 | 174.77097 | 31 ft | 13 kts | 195° |
| 2026-05-08 01:43 | -37.01577 | 174.77079 | 31 ft | 10 kts | 174° |
| 2026-05-08 01:44 | -37.01609 | 174.77124 | 31 ft | 8 kts | 99° |
| 2026-05-08 01:44 | -37.01596 | 174.77210 | 32 ft | 13 kts | 72° |
| 2026-05-08 01:44 | -37.01541 | 174.77414 | 36 ft | 47 kts | 71° |
| 2026-05-08 01:44 | -37.01359 | 174.78067 | 30 ft | 110 kts | 71° |
| 2026-05-08 01:45 | -37.01166 | 174.78765 | 31 ft | 146 kts | 71° |
| 2026-05-08 01:45 | -37.00786 | 174.80172 | 82 ft | 189 kts | 70° |
| 2026-05-08 01:45 | -37.00297 | 174.82231 | 1141 ft | 180 kts | 66° |
| 2026-05-08 01:45 | -37.00055 | 174.83264 | 1438 ft | 191 kts | 67° |
| 2026-05-08 01:46 | -36.99428 | 174.84667 | 1534 ft | 190 kts | 33° |
| 2026-05-08 01:46 | -36.97618 | 174.85431 | 1689 ft | 229 kts | 15° |
| 2026-05-08 01:46 | -36.96142 | 174.86162 | 2704 ft | 229 kts | 23° |
| 2026-05-08 01:46 | -36.95176 | 174.86786 | 3285 ft | 234 kts | 26° |
| 2026-05-08 01:47 | -36.93757 | 174.87794 | 4221 ft | 237 kts | 26° |
| 2026-05-08 01:47 | -36.92319 | 174.88794 | 5055 ft | 242 kts | 24° |
| 2026-05-08 01:47 | -36.90823 | 174.89804 | 5934 ft | 247 kts | 23° |
| 2026-05-08 01:48 | -36.87740 | 174.91885 | 7551 ft | 257 kts | 23° |
| 2026-05-08 01:48 | -36.86155 | 174.92962 | 8370 ft | 261 kts | 23° |
| 2026-05-08 01:48 | -36.84539 | 174.94057 | 9179 ft | 266 kts | 23° |
| 2026-05-08 01:48 | -36.82896 | 174.95168 | 9983 ft | 271 kts | 23° |
| 2026-05-08 01:49 | -36.81195 | 174.96313 | 10368 ft | 291 kts | 23° |
| 2026-05-08 01:49 | -36.79318 | 174.97575 | 10513 ft | 319 kts | 24° |
| 2026-05-08 01:49 | -36.77340 | 174.98920 | 11188 ft | 325 kts | 24° |
| 2026-05-08 01:49 | -36.75353 | 175.00271 | 11993 ft | 328 kts | 23° |
| 2026-05-08 01:50 | -36.73354 | 175.01616 | 12774 ft | 331 kts | 22° |
| 2026-05-08 01:50 | -36.71320 | 175.02984 | 13583 ft | 334 kts | 22° |
| 2026-05-08 01:50 | -36.69265 | 175.04369 | 14303 ft | 338 kts | 22° |
| 2026-05-08 01:50 | -36.67180 | 175.05774 | 14924 ft | 344 kts | 22° |
| 2026-05-08 01:51 | -36.65053 | 175.07205 | 15551 ft | 349 kts | 22° |
| 2026-05-08 01:51 | -36.62898 | 175.08655 | 16161 ft | 355 kts | 22° |
| 2026-05-08 01:51 | -36.60706 | 175.10129 | 16785 ft | 360 kts | 22° |
| 2026-05-08 01:51 | -36.58490 | 175.11618 | 17407 ft | 365 kts | 22° |
| 2026-05-08 01:52 | -36.56233 | 175.13133 | 18028 ft | 369 kts | 22° |
| 2026-05-08 01:52 | -36.53954 | 175.14661 | 18583 ft | 374 kts | 22° |
| 2026-05-08 01:52 | -36.51682 | 175.16185 | 19116 ft | 378 kts | 22° |
| 2026-05-08 01:52 | -36.49358 | 175.17743 | 19652 ft | 382 kts | 22° |
| 2026-05-08 01:53 | -36.47000 | 175.19321 | 20171 ft | 386 kts | 22° |
| 2026-05-08 01:53 | -36.44621 | 175.20912 | 20679 ft | 390 kts | 22° |
| 2026-05-08 01:53 | -36.42216 | 175.22521 | 21179 ft | 394 kts | 22° |
| 2026-05-08 01:53 | -36.39784 | 175.24146 | 21666 ft | 399 kts | 22° |
| 2026-05-08 01:54 | -36.37329 | 175.25785 | 22152 ft | 403 kts | 22° |
| 2026-05-08 01:54 | -36.34841 | 175.27445 | 22621 ft | 407 kts | 22° |
| 2026-05-08 01:54 | -36.32333 | 175.29117 | 23102 ft | 411 kts | 22° |
| 2026-05-08 01:54 | -36.29794 | 175.30808 | 23548 ft | 415 kts | 22° |
| 2026-05-08 01:55 | -36.27242 | 175.32507 | 23943 ft | 419 kts | 22° |
| 2026-05-08 01:55 | -36.24695 | 175.34202 | 24352 ft | 421 kts | 22° |
| 2026-05-08 01:55 | -36.22107 | 175.35922 | 24752 ft | 424 kts | 22° |
| 2026-05-08 01:55 | -36.19494 | 175.37658 | 25142 ft | 427 kts | 22° |
| 2026-05-08 01:56 | -36.16864 | 175.39403 | 25533 ft | 429 kts | 22° |
| 2026-05-08 01:56 | -36.14222 | 175.41155 | 25918 ft | 432 kts | 22° |
| 2026-05-08 01:56 | -36.11561 | 175.42919 | 26290 ft | 434 kts | 23° |
| 2026-05-08 01:56 | -36.08891 | 175.44686 | 26654 ft | 437 kts | 23° |
| 2026-05-08 01:57 | -36.06217 | 175.46455 | 27019 ft | 439 kts | 23° |
| 2026-05-08 01:57 | -36.03502 | 175.48250 | 27370 ft | 442 kts | 23° |
| 2026-05-08 01:57 | -36.00780 | 175.50048 | 27716 ft | 444 kts | 23° |
| 2026-05-08 01:57 | -35.98039 | 175.51858 | 28056 ft | 447 kts | 23° |
| 2026-05-08 01:58 | -35.95288 | 175.53672 | 28395 ft | 449 kts | 23° |
| 2026-05-08 01:58 | -35.92517 | 175.55498 | 28723 ft | 452 kts | 23° |
| 2026-05-08 01:58 | -35.89778 | 175.57302 | 29033 ft | 454 kts | 23° |
| 2026-05-08 01:58 | -35.86983 | 175.59141 | 29350 ft | 457 kts | 23° |
| 2026-05-08 01:59 | -35.84162 | 175.60995 | 29641 ft | 460 kts | 23° |
| 2026-05-08 01:59 | -35.81336 | 175.62851 | 29939 ft | 462 kts | 24° |
| 2026-05-08 01:59 | -35.78485 | 175.64723 | 30204 ft | 465 kts | 24° |
| 2026-05-08 01:59 | -35.75620 | 175.66602 | 30491 ft | 466 kts | 24° |
| 2026-05-08 02:00 | -35.72752 | 175.68481 | 30762 ft | 468 kts | 24° |
| 2026-05-08 02:00 | -35.69873 | 175.70366 | 31023 ft | 469 kts | 24° |
| 2026-05-08 02:00 | -35.66980 | 175.72259 | 31276 ft | 471 kts | 24° |
| 2026-05-08 02:00 | -35.64074 | 175.74158 | 31529 ft | 473 kts | 24° |
| 2026-05-08 02:01 | -35.61162 | 175.76060 | 31790 ft | 474 kts | 24° |
| 2026-05-08 02:01 | -35.58245 | 175.77963 | 32021 ft | 476 kts | 24° |
| 2026-05-08 02:01 | -35.55350 | 175.79851 | 32252 ft | 477 kts | 24° |
| 2026-05-08 02:01 | -35.52406 | 175.81769 | 32488 ft | 479 kts | 24° |
| 2026-05-08 02:02 | -35.49454 | 175.83691 | 32700 ft | 480 kts | 24° |
| 2026-05-08 02:02 | -35.46499 | 175.85613 | 32918 ft | 482 kts | 24° |
| 2026-05-08 02:02 | -35.43523 | 175.87547 | 33137 ft | 483 kts | 24° |
| 2026-05-08 02:02 | -35.40544 | 175.89481 | 33331 ft | 485 kts | 24° |
| 2026-05-08 02:03 | -35.37558 | 175.91418 | 33526 ft | 487 kts | 24° |
| 2026-05-08 02:03 | -35.34556 | 175.93364 | 33717 ft | 489 kts | 23° |
| 2026-05-08 02:03 | -35.31537 | 175.95319 | 33898 ft | 490 kts | 23° |
| 2026-05-08 02:03 | -35.28515 | 175.97275 | 34073 ft | 492 kts | 23° |
| 2026-05-08 02:04 | -35.25486 | 175.99233 | 34211 ft | 494 kts | 23° |
| 2026-05-08 02:04 | -35.22435 | 176.01204 | 34380 ft | 495 kts | 23° |
| 2026-05-08 02:04 | -35.19394 | 176.03167 | 34571 ft | 496 kts | 23° |
| 2026-05-08 02:04 | -35.16342 | 176.05136 | 34744 ft | 496 kts | 23° |
| 2026-05-08 02:05 | -35.13322 | 176.07082 | 34941 ft | 497 kts | 23° |
| 2026-05-08 02:05 | -35.10265 | 176.09049 | 35058 ft | 499 kts | 22° |
| 2026-05-08 02:05 | -35.04101 | 176.13013 | 35056 ft | 500 kts | 22° |
| 2026-05-08 02:06 | -34.97974 | 176.16947 | 35053 ft | 496 kts | 22° |
| 2026-05-08 02:06 | -34.91867 | 176.20858 | 35052 ft | 495 kts | 22° |
| 2026-05-08 02:07 | -34.85767 | 176.24761 | 35059 ft | 495 kts | 22° |
| 2026-05-08 02:07 | -34.79646 | 176.28669 | 35051 ft | 496 kts | 22° |
| 2026-05-08 02:08 | -34.73522 | 176.32574 | 35059 ft | 496 kts | 22° |
| 2026-05-08 02:08 | -34.67410 | 176.36464 | 35056 ft | 495 kts | 22° |
| 2026-05-08 02:09 | -34.61295 | 176.40349 | 35060 ft | 496 kts | 22° |
| 2026-05-08 02:09 | -34.55173 | 176.44233 | 35061 ft | 495 kts | 22° |
| 2026-05-08 02:10 | -34.49111 | 176.48072 | 35059 ft | 495 kts | 21° |
| 2026-05-08 02:10 | -34.43011 | 176.51928 | 35067 ft | 495 kts | 21° |
| 2026-05-08 02:11 | -34.36904 | 176.55783 | 35067 ft | 495 kts | 21° |
| 2026-05-08 02:11 | -34.30779 | 176.59642 | 35065 ft | 495 kts | 21° |
| 2026-05-08 02:12 | -34.24665 | 176.63488 | 35067 ft | 495 kts | 21° |
| 2026-05-08 02:12 | -34.18550 | 176.67328 | 35064 ft | 496 kts | 21° |
| 2026-05-08 02:13 | -34.12409 | 176.71179 | 35063 ft | 498 kts | 21° |
| 2026-05-08 02:13 | -34.06241 | 176.74820 | 35093 ft | 490 kts | 12° |
| 2026-05-08 02:14 | -33.99702 | 176.77042 | 35085 ft | 489 kts | 9° |
| 2026-05-08 02:14 | -33.93122 | 176.79149 | 35082 ft | 490 kts | 9° |
| 2026-05-08 02:15 | -33.86535 | 176.81272 | 35084 ft | 490 kts | 9° |
| 2026-05-08 02:15 | -33.79920 | 176.83391 | 35079 ft | 491 kts | 9° |
| 2026-05-08 02:16 | -33.73300 | 176.85513 | 35078 ft | 493 kts | 9° |
| 2026-05-08 02:16 | -33.66667 | 176.87634 | 35082 ft | 493 kts | 9° |
| 2026-05-08 02:17 | -33.60092 | 176.89733 | 35078 ft | 492 kts | 9° |
| 2026-05-08 02:17 | -33.53465 | 176.91846 | 35067 ft | 492 kts | 9° |
| 2026-05-08 02:18 | -33.46836 | 176.93955 | 35070 ft | 493 kts | 9° |
| 2026-05-08 02:18 | -33.40202 | 176.96064 | 35073 ft | 493 kts | 9° |
| 2026-05-08 02:19 | -33.33566 | 176.98168 | 35068 ft | 493 kts | 9° |
| 2026-05-08 02:19 | -33.26929 | 177.00271 | 35074 ft | 494 kts | 9° |
| 2026-05-08 02:20 | -33.20307 | 177.02365 | 35072 ft | 494 kts | 9° |
| 2026-05-08 02:20 | -33.13650 | 177.04468 | 35071 ft | 495 kts | 9° |
| 2026-05-08 02:21 | -33.06977 | 177.06571 | 35073 ft | 497 kts | 9° |
| 2026-05-08 02:21 | -33.00278 | 177.08680 | 35072 ft | 497 kts | 9° |
| 2026-05-08 02:22 | -32.93586 | 177.10784 | 35077 ft | 497 kts | 9° |
| 2026-05-08 02:22 | -32.86901 | 177.12881 | 35075 ft | 497 kts | 9° |
| 2026-05-08 02:23 | -32.80238 | 177.14969 | 35077 ft | 498 kts | 9° |
| 2026-05-08 02:23 | -32.73537 | 177.17065 | 35080 ft | 498 kts | 9° |
| 2026-05-08 02:24 | -32.66834 | 177.19159 | 35081 ft | 497 kts | 9° |
| 2026-05-08 02:24 | -32.60126 | 177.21251 | 35076 ft | 498 kts | 9° |
| 2026-05-08 02:25 | -32.53422 | 177.23338 | 35078 ft | 499 kts | 9° |
| 2026-05-08 02:25 | -32.46747 | 177.25413 | 35075 ft | 499 kts | 9° |
| 2026-05-08 02:26 | -32.40017 | 177.27502 | 35078 ft | 499 kts | 9° |
| 2026-05-08 02:26 | -32.33281 | 177.29590 | 35072 ft | 500 kts | 9° |
| 2026-05-08 02:27 | -32.26545 | 177.31674 | 35073 ft | 500 kts | 9° |
| 2026-05-08 02:27 | -32.19800 | 177.33758 | 35071 ft | 501 kts | 9° |
| 2026-05-08 02:28 | -32.13036 | 177.35845 | 35076 ft | 503 kts | 9° |
| 2026-05-08 02:28 | -32.06268 | 177.37930 | 35076 ft | 503 kts | 9° |
| 2026-05-08 02:29 | -31.99515 | 177.40007 | 35073 ft | 503 kts | 9° |
| 2026-05-08 02:29 | -31.92746 | 177.42086 | 35071 ft | 503 kts | 9° |
| 2026-05-08 02:30 | -31.85952 | 177.44168 | 35074 ft | 504 kts | 9° |
| 2026-05-08 02:30 | -31.79140 | 177.46254 | 35071 ft | 506 kts | 9° |
| 2026-05-08 02:31 | -31.73449 | 177.47994 | 35073 ft | 507 kts | 9° |
| 2026-05-08 02:31 | -31.66630 | 177.50076 | 35074 ft | 508 kts | 9° |
| 2026-05-08 02:32 | -31.59784 | 177.52163 | 35076 ft | 508 kts | 9° |
| 2026-05-08 02:32 | -31.52899 | 177.54258 | 35072 ft | 510 kts | 9° |
| 2026-05-08 02:33 | -31.46068 | 177.56335 | 35071 ft | 510 kts | 9° |
| 2026-05-08 02:33 | -31.39182 | 177.58424 | 35078 ft | 512 kts | 9° |
| 2026-05-08 02:34 | -31.32271 | 177.60518 | 35078 ft | 512 kts | 9° |
| 2026-05-08 02:34 | -31.25402 | 177.62596 | 35072 ft | 513 kts | 9° |
| 2026-05-08 02:35 | -31.18474 | 177.64689 | 35071 ft | 514 kts | 9° |
| 2026-05-08 02:35 | -31.11540 | 177.66781 | 35071 ft | 515 kts | 9° |
| 2026-05-08 02:36 | -31.04599 | 177.68871 | 35077 ft | 516 kts | 9° |
| 2026-05-08 02:36 | -30.97643 | 177.70963 | 35072 ft | 517 kts | 9° |
| 2026-05-08 02:37 | -30.90670 | 177.73057 | 35067 ft | 517 kts | 9° |
| 2026-05-08 02:37 | -30.83689 | 177.75149 | 35064 ft | 519 kts | 9° |
| 2026-05-08 02:38 | -30.76694 | 177.77244 | 35067 ft | 519 kts | 9° |
| 2026-05-08 02:38 | -30.69697 | 177.79335 | 35064 ft | 519 kts | 9° |
| 2026-05-08 02:39 | -30.62742 | 177.81411 | 35065 ft | 519 kts | 9° |
| 2026-05-08 02:39 | -30.55739 | 177.83498 | 35063 ft | 520 kts | 9° |
| 2026-05-08 02:40 | -30.48722 | 177.85586 | 35063 ft | 521 kts | 9° |
| 2026-05-08 02:40 | -30.41694 | 177.87674 | 35059 ft | 521 kts | 9° |
| 2026-05-08 02:41 | -30.34648 | 177.89764 | 35060 ft | 522 kts | 9° |
| 2026-05-08 02:41 | -30.27597 | 177.91854 | 35060 ft | 523 kts | 9° |
| 2026-05-08 02:42 | -30.20541 | 177.93940 | 35055 ft | 524 kts | 9° |
| 2026-05-08 02:42 | -30.13459 | 177.96032 | 35061 ft | 525 kts | 9° |
| 2026-05-08 02:43 | -30.06423 | 177.98108 | 35059 ft | 526 kts | 9° |
| 2026-05-08 02:43 | -29.99334 | 178.00271 | 35064 ft | 530 kts | 16° |
| 2026-05-08 02:44 | -29.92372 | 178.03207 | 35073 ft | 533 kts | 15° |
| 2026-05-08 02:44 | -29.85391 | 178.06128 | 35073 ft | 535 kts | 15° |
| 2026-05-08 02:45 | -29.78383 | 178.09067 | 35075 ft | 536 kts | 15° |
| 2026-05-08 02:45 | -29.71368 | 178.11998 | 35073 ft | 537 kts | 15° |
| 2026-05-08 02:46 | -29.64347 | 178.14931 | 35068 ft | 537 kts | 15° |
| 2026-05-08 02:46 | -29.57355 | 178.17845 | 35060 ft | 538 kts | 15° |
| 2026-05-08 02:47 | -29.50306 | 178.20779 | 35058 ft | 538 kts | 15° |
| 2026-05-08 02:47 | -29.43264 | 178.23707 | 35051 ft | 539 kts | 15° |
| 2026-05-08 02:48 | -29.36196 | 178.26640 | 35047 ft | 540 kts | 15° |
| 2026-05-08 02:48 | -29.29115 | 178.29575 | 35046 ft | 541 kts | 15° |
| 2026-05-08 02:49 | -29.22061 | 178.32494 | 35043 ft | 541 kts | 15° |
| 2026-05-08 02:49 | -29.14969 | 178.35424 | 35046 ft | 542 kts | 15° |
| 2026-05-08 02:50 | -29.07867 | 178.38355 | 35045 ft | 542 kts | 15° |
| 2026-05-08 02:50 | -29.00764 | 178.41281 | 35042 ft | 543 kts | 15° |
| 2026-05-08 02:51 | -28.93641 | 178.44212 | 35039 ft | 543 kts | 15° |
| 2026-05-08 02:51 | -28.86533 | 178.47131 | 35043 ft | 543 kts | 15° |
| 2026-05-08 02:52 | -28.79464 | 178.50031 | 35037 ft | 544 kts | 15° |
| 2026-05-08 02:52 | -28.72325 | 178.52955 | 35034 ft | 544 kts | 15° |
| 2026-05-08 02:53 | -28.65188 | 178.55874 | 35033 ft | 545 kts | 15° |
| 2026-05-08 02:53 | -28.58043 | 178.58792 | 35029 ft | 545 kts | 15° |
| 2026-05-08 02:54 | -28.50884 | 178.61712 | 35028 ft | 546 kts | 15° |
| 2026-05-08 02:54 | -28.43728 | 178.64626 | 35030 ft | 546 kts | 15° |
| 2026-05-08 02:55 | -28.33012 | 178.68982 | 35024 ft | 548 kts | 15° |
| 2026-05-08 02:56 | -28.25833 | 178.71895 | 35021 ft | 548 kts | 15° |
| 2026-05-08 02:56 | -28.18633 | 178.74812 | 35024 ft | 549 kts | 15° |
| 2026-05-08 02:57 | -28.11475 | 178.77709 | 35017 ft | 549 kts | 15° |
| 2026-05-08 02:57 | -28.04267 | 178.80621 | 35017 ft | 550 kts | 16° |
| 2026-05-08 02:58 | -27.97056 | 178.83531 | 35018 ft | 550 kts | 16° |
| 2026-05-08 02:58 | -27.89832 | 178.86441 | 35013 ft | 550 kts | 16° |
| 2026-05-08 02:59 | -27.82652 | 178.89330 | 35019 ft | 550 kts | 16° |
| 2026-05-08 02:59 | -27.75424 | 178.92233 | 35021 ft | 552 kts | 16° |
| 2026-05-08 03:00 | -27.68179 | 178.95140 | 35014 ft | 552 kts | 16° |
| 2026-05-08 03:00 | -27.60929 | 178.98045 | 35013 ft | 552 kts | 16° |
| 2026-05-08 03:01 | -27.53727 | 179.00926 | 35007 ft | 552 kts | 16° |
| 2026-05-08 03:01 | -27.46484 | 179.03819 | 35011 ft | 552 kts | 16° |
| 2026-05-08 03:02 | -27.39239 | 179.06710 | 35009 ft | 553 kts | 16° |
| 2026-05-08 03:02 | -27.31976 | 179.09603 | 35006 ft | 553 kts | 16° |
| 2026-05-08 03:03 | -27.24720 | 179.12490 | 35005 ft | 553 kts | 16° |
| 2026-05-08 03:03 | -27.17460 | 179.15374 | 34999 ft | 554 kts | 16° |
| 2026-05-08 03:04 | -27.10193 | 179.18257 | 35000 ft | 554 kts | 17° |
| 2026-05-08 03:04 | -27.02955 | 179.21125 | 35002 ft | 554 kts | 17° |
| 2026-05-08 03:05 | -26.95677 | 179.24004 | 35001 ft | 554 kts | 17° |
| 2026-05-08 03:05 | -26.88389 | 179.26884 | 35002 ft | 555 kts | 17° |
| 2026-05-08 03:06 | -26.81099 | 179.29760 | 35002 ft | 555 kts | 17° |
| 2026-05-08 03:06 | -26.73821 | 179.32628 | 35001 ft | 555 kts | 17° |
| 2026-05-08 03:07 | -26.66525 | 179.35498 | 34999 ft | 555 kts | 17° |
| 2026-05-08 03:07 | -26.59247 | 179.38359 | 34989 ft | 554 kts | 17° |
| 2026-05-08 03:08 | -26.52007 | 179.41199 | 34989 ft | 555 kts | 17° |
| 2026-05-08 03:08 | -26.44736 | 179.44049 | 34990 ft | 555 kts | 17° |
| 2026-05-08 03:09 | -26.37435 | 179.46906 | 34986 ft | 555 kts | 17° |
| 2026-05-08 03:09 | -26.30141 | 179.49758 | 34984 ft | 554 kts | 17° |
| 2026-05-08 03:10 | -26.22863 | 179.52598 | 34979 ft | 554 kts | 17° |
| 2026-05-08 03:10 | -26.15620 | 179.55422 | 34979 ft | 555 kts | 17° |
| 2026-05-08 03:11 | -26.08320 | 179.58263 | 34981 ft | 556 kts | 17° |
| 2026-05-08 03:11 | -26.01015 | 179.61103 | 34985 ft | 556 kts | 17° |
| 2026-05-08 03:12 | -25.93711 | 179.63940 | 34981 ft | 555 kts | 17° |
| 2026-05-08 03:12 | -25.86415 | 179.66768 | 34979 ft | 556 kts | 17° |
| 2026-05-08 03:13 | -25.79106 | 179.69599 | 34977 ft | 555 kts | 17° |
| 2026-05-08 03:13 | -25.71845 | 179.72407 | 34976 ft | 555 kts | 17° |
| 2026-05-08 03:14 | -25.64539 | 179.75229 | 34975 ft | 555 kts | 17° |
| 2026-05-08 03:14 | -25.57249 | 179.78041 | 34973 ft | 554 kts | 17° |
| 2026-05-08 03:15 | -25.49959 | 179.80849 | 34970 ft | 554 kts | 17° |
| 2026-05-08 03:15 | -25.42671 | 179.83653 | 34970 ft | 555 kts | 17° |
| 2026-05-08 03:16 | -25.35371 | 179.86458 | 34965 ft | 555 kts | 17° |
| 2026-05-08 03:16 | -25.28070 | 179.89260 | 34973 ft | 556 kts | 17° |
| 2026-05-08 03:17 | -25.20760 | 179.92062 | 34975 ft | 556 kts | 17° |
| 2026-05-08 03:17 | -25.14680 | 179.94390 | 34971 ft | 555 kts | 17° |
| 2026-05-08 03:18 | -25.07371 | 179.97184 | 34966 ft | 556 kts | 17° |
| 2026-05-08 03:18 | -25.00053 | 179.99925 | 34988 ft | 553 kts | 10° |
| 2026-05-08 03:19 | -24.92523 | -179.98445 | 34988 ft | 552 kts | 7° |
| 2026-05-08 03:19 | -24.85006 | -179.96892 | 34985 ft | 553 kts | 7° |
| 2026-05-08 03:20 | -24.77427 | -179.95317 | 34985 ft | 553 kts | 7° |
| 2026-05-08 03:20 | -24.69852 | -179.93754 | 34983 ft | 553 kts | 7° |
| 2026-05-08 03:21 | -24.62273 | -179.92185 | 34974 ft | 553 kts | 7° |
| 2026-05-08 03:21 | -24.54752 | -179.90636 | 34972 ft | 554 kts | 7° |
| 2026-05-08 03:22 | -24.47168 | -179.89071 | 34969 ft | 554 kts | 7° |
| 2026-05-08 03:22 | -24.39588 | -179.87512 | 34965 ft | 555 kts | 7° |
| 2026-05-08 03:23 | -24.31978 | -179.85946 | 34965 ft | 554 kts | 7° |
| 2026-05-08 03:23 | -24.24393 | -179.84389 | 34966 ft | 554 kts | 7° |
| 2026-05-08 03:24 | -24.16814 | -179.82834 | 34958 ft | 554 kts | 7° |
| 2026-05-08 03:24 | -24.09225 | -179.81280 | 34958 ft | 554 kts | 7° |
| 2026-05-08 03:25 | -24.01692 | -179.79738 | 34958 ft | 553 kts | 7° |
| 2026-05-08 03:25 | -23.94114 | -179.78190 | 34960 ft | 554 kts | 7° |
| 2026-05-08 03:26 | -23.86536 | -179.76643 | 34957 ft | 554 kts | 7° |
| 2026-05-08 03:26 | -23.78956 | -179.75097 | 34953 ft | 554 kts | 7° |
| 2026-05-08 03:27 | -23.71370 | -179.73553 | 34958 ft | 555 kts | 7° |
| 2026-05-08 03:27 | -23.63769 | -179.72007 | 34959 ft | 555 kts | 7° |
| 2026-05-08 03:28 | -23.56221 | -179.70473 | 34962 ft | 555 kts | 7° |
| 2026-05-08 03:28 | -23.48614 | -179.68930 | 34965 ft | 556 kts | 7° |
| 2026-05-08 03:29 | -23.41013 | -179.67390 | 34957 ft | 556 kts | 6° |
| 2026-05-08 03:29 | -23.33398 | -179.65848 | 34956 ft | 557 kts | 6° |
| 2026-05-08 03:30 | -23.21964 | -179.63536 | 34956 ft | 556 kts | 6° |
| 2026-05-08 03:31 | -23.06788 | -179.60475 | 34955 ft | 556 kts | 6° |
| 2026-05-08 03:32 | -22.95368 | -179.58176 | 34957 ft | 556 kts | 6° |
| 2026-05-08 03:32 | -22.87742 | -179.56643 | 34959 ft | 557 kts | 6° |
| 2026-05-08 03:33 | -22.80117 | -179.55112 | 34952 ft | 557 kts | 6° |
| 2026-05-08 03:33 | -22.72480 | -179.53580 | 34955 ft | 558 kts | 6° |
| 2026-05-08 03:34 | -22.64887 | -179.52058 | 34955 ft | 558 kts | 6° |
| 2026-05-08 03:34 | -22.57239 | -179.50528 | 34955 ft | 558 kts | 6° |
| 2026-05-08 03:35 | -22.49583 | -179.48997 | 34955 ft | 558 kts | 6° |
| 2026-05-08 03:35 | -22.41980 | -179.47479 | 34956 ft | 559 kts | 6° |
| 2026-05-08 03:36 | -22.34332 | -179.45954 | 34949 ft | 559 kts | 6° |
| 2026-05-08 03:36 | -22.26673 | -179.44428 | 34956 ft | 560 kts | 6° |
| 2026-05-08 03:37 | -22.19001 | -179.42901 | 34955 ft | 560 kts | 6° |
| 2026-05-08 03:37 | -22.11341 | -179.41378 | 34953 ft | 560 kts | 6° |
| 2026-05-08 03:38 | -22.03669 | -179.39855 | 34954 ft | 561 kts | 6° |
| 2026-05-08 03:38 | -21.95984 | -179.38330 | 34954 ft | 561 kts | 6° |
| 2026-05-08 03:39 | -21.88308 | -179.36810 | 34948 ft | 561 kts | 6° |
| 2026-05-08 03:39 | -21.80675 | -179.35299 | 34950 ft | 561 kts | 6° |
| 2026-05-08 03:40 | -21.72993 | -179.33780 | 34954 ft | 561 kts | 6° |
| 2026-05-08 03:40 | -21.65300 | -179.32261 | 34950 ft | 561 kts | 6° |
| 2026-05-08 03:41 | -21.57605 | -179.30743 | 34950 ft | 562 kts | 6° |
| 2026-05-08 03:41 | -21.49902 | -179.29225 | 34950 ft | 563 kts | 6° |
| 2026-05-08 03:42 | -21.42197 | -179.27708 | 34951 ft | 563 kts | 6° |
| 2026-05-08 03:42 | -21.34485 | -179.26192 | 34950 ft | 563 kts | 6° |
| 2026-05-08 03:43 | -21.26771 | -179.24677 | 34963 ft | 564 kts | 6° |
| 2026-05-08 03:43 | -21.19052 | -179.23162 | 34958 ft | 565 kts | 6° |
| 2026-05-08 03:44 | -21.11311 | -179.21644 | 34951 ft | 565 kts | 6° |
| 2026-05-08 03:44 | -21.03623 | -179.20139 | 34951 ft | 565 kts | 6° |
| 2026-05-08 03:45 | -20.95893 | -179.18627 | 34952 ft | 564 kts | 6° |
| 2026-05-08 03:45 | -20.88176 | -179.17119 | 34949 ft | 563 kts | 6° |
| 2026-05-08 03:46 | -20.80457 | -179.15613 | 34946 ft | 563 kts | 6° |
| 2026-05-08 03:46 | -20.72735 | -179.14107 | 34947 ft | 564 kts | 6° |
| 2026-05-08 03:47 | -20.65007 | -179.12601 | 34948 ft | 564 kts | 6° |
| 2026-05-08 03:47 | -20.57275 | -179.11097 | 34943 ft | 564 kts | 6° |
| 2026-05-08 03:48 | -20.49584 | -179.09602 | 34947 ft | 564 kts | 6° |
| 2026-05-08 03:48 | -20.41853 | -179.08101 | 34944 ft | 564 kts | 6° |
| 2026-05-08 03:49 | -20.34138 | -179.06604 | 34948 ft | 564 kts | 6° |
| 2026-05-08 03:49 | -20.26408 | -179.05106 | 34945 ft | 564 kts | 6° |
| 2026-05-08 03:50 | -20.18745 | -179.03623 | 34943 ft | 563 kts | 6° |
| 2026-05-08 03:50 | -20.11040 | -179.02133 | 34941 ft | 562 kts | 6° |
| 2026-05-08 03:51 | -20.03346 | -179.00646 | 34947 ft | 561 kts | 6° |
| 2026-05-08 03:51 | -19.95828 | -178.98299 | 34952 ft | 568 kts | 18° |
| 2026-05-08 03:52 | -19.88449 | -178.95229 | 34964 ft | 569 kts | 18° |
| 2026-05-08 03:52 | -19.81074 | -178.92207 | 34957 ft | 568 kts | 18° |
| 2026-05-08 03:53 | -19.73710 | -178.89172 | 34961 ft | 567 kts | 18° |
| 2026-05-08 03:53 | -19.66396 | -178.86169 | 34955 ft | 566 kts | 18° |
| 2026-05-08 03:54 | -19.59043 | -178.83151 | 34951 ft | 566 kts | 18° |
| 2026-05-08 03:54 | -19.51701 | -178.80139 | 34947 ft | 565 kts | 18° |
| 2026-05-08 03:55 | -19.44358 | -178.77132 | 34943 ft | 565 kts | 18° |
| 2026-05-08 03:55 | -19.37021 | -178.74128 | 34941 ft | 565 kts | 18° |
| 2026-05-08 03:56 | -19.29697 | -178.71134 | 34940 ft | 564 kts | 18° |
| 2026-05-08 03:56 | -19.22364 | -178.68138 | 34941 ft | 564 kts | 18° |
| 2026-05-08 03:57 | -19.15053 | -178.65155 | 34940 ft | 563 kts | 18° |
| 2026-05-08 03:57 | -19.07790 | -178.62193 | 34937 ft | 562 kts | 18° |
| 2026-05-08 03:58 | -19.00490 | -178.59220 | 34940 ft | 562 kts | 18° |
| 2026-05-08 03:58 | -18.93203 | -178.56254 | 34939 ft | 561 kts | 18° |
| 2026-05-08 03:59 | -18.85919 | -178.53293 | 34945 ft | 560 kts | 18° |
| 2026-05-08 03:59 | -18.78637 | -178.50335 | 34941 ft | 560 kts | 18° |
| 2026-05-08 04:00 | -18.71362 | -178.47383 | 34941 ft | 559 kts | 18° |
| 2026-05-08 04:00 | -18.64093 | -178.44436 | 34940 ft | 559 kts | 18° |
| 2026-05-08 04:01 | -18.56861 | -178.41506 | 34942 ft | 558 kts | 18° |
| 2026-05-08 04:01 | -18.49606 | -178.38570 | 34942 ft | 557 kts | 18° |
| 2026-05-08 04:02 | -18.42419 | -178.35664 | 34939 ft | 556 kts | 18° |
| 2026-05-08 04:02 | -18.35198 | -178.32747 | 34937 ft | 556 kts | 18° |
| 2026-05-08 04:03 | -18.27963 | -178.29827 | 34939 ft | 555 kts | 18° |
| 2026-05-08 04:03 | -18.18367 | -178.25958 | 34935 ft | 554 kts | 18° |
| 2026-05-08 04:04 | -18.11151 | -178.23052 | 34935 ft | 554 kts | 18° |
| 2026-05-08 04:04 | -18.03983 | -178.20167 | 34931 ft | 554 kts | 18° |
| 2026-05-08 04:05 | -17.96768 | -178.17267 | 34935 ft | 555 kts | 18° |
| 2026-05-08 04:05 | -17.89563 | -178.14372 | 34945 ft | 554 kts | 18° |
| 2026-05-08 04:06 | -17.82378 | -178.11488 | 34941 ft | 552 kts | 18° |
| 2026-05-08 04:06 | -17.75199 | -178.08609 | 34940 ft | 552 kts | 18° |
| 2026-05-08 04:07 | -17.68020 | -178.05733 | 34936 ft | 551 kts | 18° |
| 2026-05-08 04:07 | -17.60869 | -178.02871 | 34934 ft | 550 kts | 18° |
| 2026-05-08 04:08 | -17.53708 | -178.00006 | 34932 ft | 550 kts | 18° |
| 2026-05-08 04:08 | -17.46556 | -177.97148 | 34932 ft | 550 kts | 18° |
| 2026-05-08 04:09 | -17.39407 | -177.94293 | 34930 ft | 550 kts | 18° |
| 2026-05-08 04:09 | -17.32267 | -177.91445 | 34933 ft | 549 kts | 18° |
| 2026-05-08 04:10 | -17.25148 | -177.88606 | 34936 ft | 548 kts | 18° |
| 2026-05-08 04:10 | -17.18053 | -177.85781 | 34932 ft | 547 kts | 18° |
| 2026-05-08 04:11 | -17.10946 | -177.82952 | 34931 ft | 546 kts | 18° |
| 2026-05-08 04:11 | -17.03851 | -177.80131 | 34936 ft | 545 kts | 18° |
| 2026-05-08 04:12 | -16.96766 | -177.77315 | 34934 ft | 544 kts | 18° |
| 2026-05-08 04:12 | -16.89692 | -177.74507 | 34933 ft | 542 kts | 18° |
| 2026-05-08 04:13 | -16.82626 | -177.71704 | 34930 ft | 542 kts | 18° |
| 2026-05-08 04:13 | -16.75624 | -177.68928 | 34937 ft | 541 kts | 18° |
| 2026-05-08 04:14 | -16.68573 | -177.66136 | 34937 ft | 540 kts | 18° |
| 2026-05-08 04:14 | -16.61525 | -177.63347 | 34933 ft | 540 kts | 18° |
| 2026-05-08 04:15 | -16.54562 | -177.60593 | 34931 ft | 539 kts | 18° |
| 2026-05-08 04:15 | -16.47558 | -177.57826 | 34944 ft | 538 kts | 18° |
| 2026-05-08 04:16 | -16.40558 | -177.55062 | 34936 ft | 537 kts | 18° |
| 2026-05-08 04:16 | -16.33570 | -177.52305 | 34942 ft | 536 kts | 18° |
| 2026-05-08 04:17 | -16.26577 | -177.49548 | 34930 ft | 535 kts | 18° |
| 2026-05-08 04:17 | -16.19662 | -177.46824 | 34935 ft | 534 kts | 18° |
| 2026-05-08 04:18 | -16.12705 | -177.44086 | 34934 ft | 534 kts | 18° |
| 2026-05-08 04:18 | -16.05746 | -177.41348 | 34931 ft | 534 kts | 18° |
| 2026-05-08 04:19 | -15.98805 | -177.38620 | 34927 ft | 532 kts | 18° |
| 2026-05-08 04:19 | -15.91916 | -177.35915 | 34933 ft | 531 kts | 18° |
| 2026-05-08 04:20 | -15.84959 | -177.33184 | 34926 ft | 531 kts | 18° |
| 2026-05-08 04:20 | -15.78097 | -177.30493 | 34936 ft | 530 kts | 18° |
| 2026-05-08 04:21 | -15.71206 | -177.27793 | 34920 ft | 529 kts | 18° |
| 2026-05-08 04:21 | -15.64297 | -177.25087 | 34932 ft | 528 kts | 18° |
| 2026-05-08 04:22 | -15.57412 | -177.22393 | 34925 ft | 528 kts | 18° |
| 2026-05-08 04:22 | -15.50583 | -177.19723 | 34926 ft | 528 kts | 18° |
| 2026-05-08 04:23 | -15.43705 | -177.17035 | 34927 ft | 527 kts | 18° |
| 2026-05-08 04:23 | -15.36835 | -177.14352 | 34924 ft | 527 kts | 18° |
| 2026-05-08 04:24 | -15.29960 | -177.11669 | 34922 ft | 527 kts | 18° |
| 2026-05-08 04:24 | -15.23143 | -177.09011 | 34922 ft | 526 kts | 18° |
| 2026-05-08 04:25 | -15.16292 | -177.06341 | 34924 ft | 525 kts | 18° |
| 2026-05-08 04:25 | -15.09452 | -177.03678 | 34924 ft | 525 kts | 18° |
| 2026-05-08 04:26 | -15.02614 | -177.01017 | 34922 ft | 524 kts | 18° |
| 2026-05-08 04:26 | -14.96091 | -176.97610 | 34937 ft | 529 kts | 28° |
| 2026-05-08 04:27 | -14.89767 | -176.93709 | 34906 ft | 529 kts | 29° |
| 2026-05-08 04:27 | -14.83405 | -176.89813 | 34939 ft | 533 kts | 29° |
| 2026-05-08 04:28 | -14.77035 | -176.85901 | 34934 ft | 532 kts | 29° |
| 2026-05-08 04:28 | -14.70716 | -176.82029 | 34932 ft | 532 kts | 29° |
| 2026-05-08 04:29 | -14.64353 | -176.78132 | 34936 ft | 531 kts | 29° |
| 2026-05-08 04:29 | -14.57997 | -176.74241 | 34929 ft | 531 kts | 29° |
| 2026-05-08 04:30 | -14.51647 | -176.70357 | 34929 ft | 530 kts | 29° |
| 2026-05-08 04:30 | -14.45306 | -176.66480 | 34927 ft | 529 kts | 29° |
| 2026-05-08 04:31 | -14.38966 | -176.62608 | 34923 ft | 529 kts | 29° |
| 2026-05-08 04:31 | -14.32673 | -176.58766 | 34918 ft | 529 kts | 29° |
| 2026-05-08 04:32 | -14.26339 | -176.54902 | 34921 ft | 529 kts | 29° |
| 2026-05-08 04:32 | -14.20002 | -176.51039 | 34915 ft | 528 kts | 29° |
| 2026-05-08 04:33 | -14.13684 | -176.47189 | 34913 ft | 527 kts | 29° |
| 2026-05-08 04:33 | -14.07366 | -176.43343 | 34912 ft | 527 kts | 29° |
| 2026-05-08 04:34 | -14.01041 | -176.39494 | 34913 ft | 528 kts | 29° |
| 2026-05-08 04:34 | -13.94716 | -176.35648 | 34912 ft | 528 kts | 29° |
| 2026-05-08 04:35 | -13.88433 | -176.31830 | 34910 ft | 528 kts | 29° |
| 2026-05-08 04:35 | -13.82114 | -176.27992 | 34909 ft | 527 kts | 29° |
| 2026-05-08 04:36 | -13.75798 | -176.24159 | 34907 ft | 526 kts | 29° |
| 2026-05-08 04:36 | -13.69489 | -176.20333 | 34908 ft | 526 kts | 29° |
| 2026-05-08 04:37 | -13.63186 | -176.16512 | 34908 ft | 525 kts | 29° |
| 2026-05-08 04:37 | -13.56883 | -176.12694 | 34906 ft | 525 kts | 28° |
| 2026-05-08 04:38 | -13.50596 | -176.08888 | 34907 ft | 525 kts | 28° |
| 2026-05-08 04:38 | -13.44333 | -176.05099 | 34907 ft | 525 kts | 28° |
| 2026-05-08 04:39 | -13.38039 | -176.01293 | 34909 ft | 524 kts | 28° |
| 2026-05-08 04:39 | -13.31757 | -175.97497 | 34904 ft | 524 kts | 28° |
| 2026-05-08 04:40 | -13.25479 | -175.93706 | 34905 ft | 523 kts | 28° |
| 2026-05-08 04:40 | -13.19198 | -175.89915 | 34906 ft | 523 kts | 28° |
| 2026-05-08 04:41 | -13.12919 | -175.86128 | 34903 ft | 523 kts | 28° |
| 2026-05-08 04:41 | -13.06672 | -175.82362 | 34902 ft | 522 kts | 28° |
| 2026-05-08 04:42 | -13.00400 | -175.78583 | 34901 ft | 522 kts | 28° |
| 2026-05-08 04:42 | -12.94136 | -175.74812 | 34903 ft | 522 kts | 28° |
| 2026-05-08 04:43 | -12.87897 | -175.71058 | 34903 ft | 522 kts | 28° |
| 2026-05-08 04:43 | -12.81640 | -175.67295 | 34901 ft | 521 kts | 28° |
| 2026-05-08 04:44 | -12.75401 | -175.63545 | 34896 ft | 519 kts | 28° |
| 2026-05-08 04:44 | -12.69168 | -175.59801 | 34900 ft | 518 kts | 28° |
| 2026-05-08 04:45 | -12.62998 | -175.56096 | 34899 ft | 516 kts | 28° |
| 2026-05-08 04:45 | -12.56755 | -175.52350 | 34895 ft | 516 kts | 28° |
| 2026-05-08 04:46 | -12.50567 | -175.48640 | 34901 ft | 515 kts | 27° |
| 2026-05-08 04:46 | -12.44423 | -175.44958 | 34902 ft | 515 kts | 28° |
| 2026-05-08 04:47 | -12.38235 | -175.41251 | 34901 ft | 515 kts | 28° |
| 2026-05-08 04:47 | -12.32048 | -175.37547 | 34905 ft | 515 kts | 28° |
| 2026-05-08 04:48 | -12.25863 | -175.33846 | 34902 ft | 514 kts | 28° |
| 2026-05-08 04:48 | -12.19691 | -175.30155 | 34897 ft | 513 kts | 28° |
| 2026-05-08 04:49 | -12.14562 | -175.27089 | 34900 ft | 514 kts | 28° |
| 2026-05-08 04:49 | -12.07386 | -175.22803 | 34899 ft | 514 kts | 28° |
| 2026-05-08 04:50 | -12.01214 | -175.19118 | 34899 ft | 513 kts | 28° |
| 2026-05-08 04:50 | -11.96082 | -175.16056 | 34898 ft | 513 kts | 28° |
| 2026-05-08 04:51 | -11.89921 | -175.12381 | 34898 ft | 513 kts | 28° |
| 2026-05-08 04:51 | -11.83748 | -175.08701 | 34894 ft | 512 kts | 28° |
| 2026-05-08 04:52 | -11.77603 | -175.05039 | 34890 ft | 510 kts | 28° |
| 2026-05-08 04:52 | -11.71478 | -175.01392 | 34894 ft | 509 kts | 28° |
| 2026-05-08 04:53 | -11.65385 | -174.97766 | 34894 ft | 510 kts | 28° |
| 2026-05-08 04:53 | -11.59255 | -174.94119 | 34893 ft | 510 kts | 28° |
| 2026-05-08 04:54 | -11.53114 | -174.90467 | 34896 ft | 511 kts | 28° |
| 2026-05-08 04:54 | -11.46954 | -174.86806 | 34895 ft | 511 kts | 28° |
| 2026-05-08 04:55 | -11.40845 | -174.83177 | 34890 ft | 510 kts | 28° |
| 2026-05-08 04:55 | -11.34712 | -174.79536 | 34889 ft | 509 kts | 28° |
| 2026-05-08 04:56 | -11.28600 | -174.75909 | 34890 ft | 509 kts | 28° |
| 2026-05-08 04:56 | -11.22463 | -174.72270 | 34894 ft | 510 kts | 28° |
| 2026-05-08 04:57 | -11.16318 | -174.68627 | 34898 ft | 512 kts | 28° |
| 2026-05-08 04:57 | -11.10167 | -174.64982 | 34898 ft | 511 kts | 28° |
| 2026-05-08 04:58 | -11.04019 | -174.61342 | 34891 ft | 510 kts | 28° |
| 2026-05-08 04:58 | -10.97891 | -174.57714 | 34886 ft | 509 kts | 28° |
| 2026-05-08 04:59 | -10.91801 | -174.54111 | 34887 ft | 510 kts | 28° |
| 2026-05-08 04:59 | -10.85637 | -174.50466 | 34888 ft | 512 kts | 28° |
| 2026-05-08 05:00 | -10.79463 | -174.46817 | 34891 ft | 513 kts | 28° |
| 2026-05-08 05:00 | -10.73296 | -174.43174 | 34894 ft | 512 kts | 28° |
| 2026-05-08 05:01 | -10.67126 | -174.39530 | 34893 ft | 513 kts | 28° |
| 2026-05-08 05:01 | -10.60952 | -174.35886 | 34893 ft | 513 kts | 28° |
| 2026-05-08 05:02 | -10.54813 | -174.32264 | 34891 ft | 512 kts | 28° |
| 2026-05-08 05:02 | -10.48653 | -174.28632 | 34887 ft | 512 kts | 28° |
| 2026-05-08 05:03 | -10.42473 | -174.24990 | 34891 ft | 512 kts | 28° |
| 2026-05-08 05:03 | -10.36305 | -174.21356 | 34890 ft | 513 kts | 28° |
| 2026-05-08 05:04 | -10.30134 | -174.17722 | 34889 ft | 512 kts | 28° |
| 2026-05-08 05:04 | -10.24001 | -174.14112 | 34893 ft | 512 kts | 28° |
| 2026-05-08 05:05 | -10.17824 | -174.10478 | 34890 ft | 513 kts | 28° |
| 2026-05-08 05:05 | -10.11645 | -174.06845 | 34891 ft | 513 kts | 28° |
| 2026-05-08 05:06 | -10.05459 | -174.03209 | 34895 ft | 514 kts | 28° |
| 2026-05-08 05:06 | -9.99427 | -173.99317 | 34927 ft | 516 kts | 40° |
| 2026-05-08 05:07 | -9.94310 | -173.94212 | 34899 ft | 519 kts | 44° |
| 2026-05-08 05:07 | -9.89221 | -173.89015 | 34898 ft | 519 kts | 43° |
| 2026-05-08 05:08 | -9.84112 | -173.83823 | 34897 ft | 519 kts | 43° |
| 2026-05-08 05:08 | -9.79001 | -173.78617 | 34903 ft | 520 kts | 43° |
| 2026-05-08 05:09 | -9.73898 | -173.73430 | 34903 ft | 519 kts | 43° |
| 2026-05-08 05:09 | -9.68800 | -173.68245 | 34899 ft | 520 kts | 43° |
| 2026-05-08 05:10 | -9.61127 | -173.60450 | 34899 ft | 519 kts | 43° |
| 2026-05-08 05:11 | -9.56060 | -173.55304 | 34892 ft | 518 kts | 43° |
| 2026-05-08 05:11 | -9.50966 | -173.50134 | 34890 ft | 518 kts | 43° |
| 2026-05-08 05:12 | -9.45868 | -173.44962 | 34887 ft | 517 kts | 43° |
| 2026-05-08 05:12 | -9.40794 | -173.39817 | 34884 ft | 516 kts | 43° |
| 2026-05-08 05:13 | -9.35708 | -173.34662 | 34884 ft | 516 kts | 43° |
| 2026-05-08 05:13 | -9.30631 | -173.29517 | 34882 ft | 516 kts | 43° |
| 2026-05-08 05:14 | -9.25588 | -173.24410 | 34887 ft | 516 kts | 43° |
| 2026-05-08 05:14 | -9.20512 | -173.19271 | 34885 ft | 516 kts | 43° |
| 2026-05-08 05:15 | -9.15448 | -173.14147 | 34880 ft | 515 kts | 43° |
| 2026-05-08 05:15 | -9.10376 | -173.09017 | 34880 ft | 515 kts | 43° |
| 2026-05-08 05:16 | -9.05309 | -173.03895 | 34882 ft | 516 kts | 43° |
| 2026-05-08 05:16 | -9.00231 | -172.98762 | 34884 ft | 515 kts | 43° |
| 2026-05-08 05:17 | -8.95156 | -172.93636 | 34882 ft | 514 kts | 43° |
| 2026-05-08 05:17 | -8.90126 | -172.88557 | 34883 ft | 513 kts | 43° |
| 2026-05-08 05:18 | -8.85075 | -172.83459 | 34875 ft | 512 kts | 43° |
| 2026-05-08 05:18 | -8.80031 | -172.78370 | 34877 ft | 512 kts | 43° |
| 2026-05-08 05:19 | -8.74978 | -172.73274 | 34877 ft | 512 kts | 43° |
| 2026-05-08 05:19 | -8.69929 | -172.68183 | 34878 ft | 512 kts | 43° |
| 2026-05-08 05:20 | -8.64907 | -172.63123 | 34876 ft | 513 kts | 43° |
| 2026-05-08 05:20 | -8.59848 | -172.58028 | 34876 ft | 513 kts | 43° |
| 2026-05-08 05:21 | -8.54792 | -172.52937 | 34874 ft | 512 kts | 43° |
| 2026-05-08 05:21 | -8.49759 | -172.47870 | 34869 ft | 511 kts | 43° |
| 2026-05-08 05:22 | -8.44718 | -172.42799 | 34875 ft | 511 kts | 43° |
| 2026-05-08 05:22 | -8.39706 | -172.37758 | 34867 ft | 511 kts | 43° |
| 2026-05-08 05:23 | -8.34663 | -172.32689 | 34871 ft | 512 kts | 43° |
| 2026-05-08 05:23 | -8.29599 | -172.27600 | 34872 ft | 513 kts | 43° |
| 2026-05-08 05:24 | -8.24532 | -172.22509 | 34872 ft | 513 kts | 43° |
| 2026-05-08 05:24 | -8.19469 | -172.17426 | 34873 ft | 512 kts | 43° |
| 2026-05-08 05:25 | -8.14412 | -172.12349 | 34867 ft | 512 kts | 43° |
| 2026-05-08 05:25 | -8.09402 | -172.07323 | 34869 ft | 512 kts | 43° |
| 2026-05-08 05:26 | -8.04333 | -172.02239 | 34867 ft | 512 kts | 43° |
| 2026-05-08 05:26 | -7.99284 | -171.97176 | 34865 ft | 512 kts | 43° |
| 2026-05-08 05:27 | -7.94256 | -171.92137 | 34870 ft | 512 kts | 43° |
| 2026-05-08 05:27 | -7.89196 | -171.87067 | 34872 ft | 512 kts | 43° |
| 2026-05-08 05:28 | -7.84138 | -171.82001 | 34871 ft | 512 kts | 43° |
| 2026-05-08 05:28 | -7.79077 | -171.76934 | 34876 ft | 511 kts | 43° |
| 2026-05-08 05:29 | -7.74025 | -171.71877 | 34868 ft | 511 kts | 43° |
| 2026-05-08 05:29 | -7.69006 | -171.66856 | 34870 ft | 512 kts | 43° |
| 2026-05-08 05:30 | -7.63944 | -171.61794 | 34867 ft | 511 kts | 43° |
| 2026-05-08 05:30 | -7.58901 | -171.56752 | 34866 ft | 510 kts | 43° |
| 2026-05-08 05:31 | -7.53855 | -171.51710 | 34868 ft | 511 kts | 43° |
| 2026-05-08 05:31 | -7.48790 | -171.46650 | 34867 ft | 511 kts | 43° |
| 2026-05-08 05:32 | -7.43778 | -171.41643 | 34868 ft | 511 kts | 43° |
| 2026-05-08 05:32 | -7.38714 | -171.36588 | 34866 ft | 511 kts | 43° |
| 2026-05-08 05:33 | -7.33669 | -171.31553 | 34869 ft | 510 kts | 43° |
| 2026-05-08 05:33 | -7.28631 | -171.26526 | 34866 ft | 510 kts | 43° |
| 2026-05-08 05:34 | -7.23585 | -171.21494 | 34865 ft | 510 kts | 43° |
| 2026-05-08 05:34 | -7.18548 | -171.16471 | 34871 ft | 509 kts | 43° |
| 2026-05-08 05:35 | -7.14368 | -171.12305 | 34868 ft | 508 kts | 43° |
| 2026-05-08 05:35 | -7.08520 | -171.06478 | 34868 ft | 508 kts | 43° |
| 2026-05-08 05:36 | -7.03485 | -171.01464 | 34867 ft | 508 kts | 43° |
| 2026-05-08 05:36 | -6.99304 | -170.97300 | 34864 ft | 508 kts | 43° |
| 2026-05-08 05:37 | -6.93448 | -170.91471 | 34867 ft | 508 kts | 43° |
| 2026-05-08 05:37 | -6.89266 | -170.87309 | 34871 ft | 508 kts | 43° |
| 2026-05-08 05:38 | -6.84237 | -170.82306 | 34869 ft | 508 kts | 43° |
| 2026-05-08 05:38 | -6.79199 | -170.77296 | 34867 ft | 509 kts | 43° |
| 2026-05-08 05:39 | -6.74165 | -170.72291 | 34869 ft | 509 kts | 43° |
| 2026-05-08 05:39 | -6.69127 | -170.67284 | 34883 ft | 509 kts | 43° |
| 2026-05-08 05:40 | -6.64088 | -170.62276 | 34884 ft | 509 kts | 43° |
| 2026-05-08 05:40 | -6.59053 | -170.57276 | 34884 ft | 509 kts | 43° |
| 2026-05-08 05:41 | -6.54022 | -170.52279 | 34882 ft | 509 kts | 43° |
| 2026-05-08 05:41 | -6.48978 | -170.47273 | 34881 ft | 509 kts | 43° |
| 2026-05-08 05:42 | -6.43939 | -170.42272 | 34880 ft | 509 kts | 43° |
| 2026-05-08 05:42 | -6.38929 | -170.37301 | 34881 ft | 508 kts | 43° |
| 2026-05-08 05:43 | -6.33896 | -170.32309 | 34882 ft | 508 kts | 43° |
| 2026-05-08 05:43 | -6.28868 | -170.27324 | 34881 ft | 508 kts | 43° |
| 2026-05-08 05:44 | -6.23829 | -170.22329 | 34882 ft | 508 kts | 43° |
| 2026-05-08 05:44 | -6.18790 | -170.17335 | 34882 ft | 508 kts | 43° |
| 2026-05-08 05:45 | -6.13766 | -170.12358 | 34881 ft | 507 kts | 43° |
| 2026-05-08 05:45 | -6.08770 | -170.07411 | 34880 ft | 507 kts | 43° |
| 2026-05-08 05:46 | -6.03742 | -170.02431 | 34882 ft | 507 kts | 43° |
| 2026-05-08 05:46 | -5.98700 | -169.97441 | 34882 ft | 506 kts | 43° |
| 2026-05-08 05:47 | -5.93683 | -169.92476 | 34885 ft | 506 kts | 43° |
| 2026-05-08 05:47 | -5.88668 | -169.87515 | 34885 ft | 506 kts | 43° |
| 2026-05-08 05:48 | -5.83656 | -169.82557 | 34883 ft | 506 kts | 43° |
| 2026-05-08 05:48 | -5.78671 | -169.77628 | 34886 ft | 505 kts | 43° |
| 2026-05-08 05:49 | -5.73657 | -169.72671 | 34883 ft | 505 kts | 43° |
| 2026-05-08 05:49 | -5.68655 | -169.67728 | 34887 ft | 505 kts | 43° |
| 2026-05-08 05:50 | -5.63641 | -169.62774 | 34888 ft | 505 kts | 43° |
| 2026-05-08 05:50 | -5.58637 | -169.57831 | 34889 ft | 505 kts | 43° |
| 2026-05-08 05:51 | -5.53653 | -169.52909 | 34889 ft | 504 kts | 43° |
| 2026-05-08 05:51 | -5.48653 | -169.47972 | 34889 ft | 504 kts | 43° |
| 2026-05-08 05:52 | -5.43643 | -169.43028 | 34889 ft | 504 kts | 43° |
| 2026-05-08 05:52 | -5.38635 | -169.38086 | 34893 ft | 504 kts | 43° |
| 2026-05-08 05:53 | -5.33630 | -169.33148 | 34892 ft | 505 kts | 43° |
| 2026-05-08 05:53 | -5.28613 | -169.28200 | 34893 ft | 505 kts | 43° |
| 2026-05-08 05:54 | -5.23631 | -169.23287 | 34896 ft | 505 kts | 43° |
| 2026-05-08 05:54 | -5.18618 | -169.18346 | 34894 ft | 505 kts | 43° |
| 2026-05-08 05:55 | -5.13598 | -169.13398 | 34893 ft | 505 kts | 43° |
| 2026-05-08 05:55 | -5.08579 | -169.08453 | 34895 ft | 505 kts | 43° |
| 2026-05-08 05:56 | -5.03562 | -169.03510 | 34895 ft | 505 kts | 43° |
| 2026-05-08 05:56 | -4.98454 | -168.98739 | 34921 ft | 503 kts | 37° |
| 2026-05-08 05:57 | -4.92966 | -168.94345 | 34904 ft | 505 kts | 37° |
| 2026-05-08 05:57 | -4.87483 | -168.89919 | 34908 ft | 505 kts | 38° |
| 2026-05-08 05:58 | -4.81997 | -168.85509 | 34906 ft | 505 kts | 37° |
| 2026-05-08 05:58 | -4.76547 | -168.81122 | 34907 ft | 505 kts | 37° |
| 2026-05-08 05:59 | -4.71069 | -168.76714 | 34905 ft | 505 kts | 37° |
| 2026-05-08 05:59 | -4.65581 | -168.72300 | 34905 ft | 505 kts | 38° |
| 2026-05-08 06:00 | -4.60105 | -168.67895 | 34907 ft | 505 kts | 37° |
| 2026-05-08 06:00 | -4.54656 | -168.63514 | 34905 ft | 505 kts | 38° |
| 2026-05-08 06:01 | -4.49177 | -168.59110 | 34908 ft | 505 kts | 38° |
| 2026-05-08 06:01 | -4.43692 | -168.54701 | 34909 ft | 505 kts | 38° |
| 2026-05-08 06:02 | -4.38200 | -168.50288 | 34911 ft | 506 kts | 38° |
| 2026-05-08 06:02 | -4.32736 | -168.45899 | 34910 ft | 505 kts | 38° |
| 2026-05-08 06:03 | -4.27250 | -168.41491 | 34910 ft | 505 kts | 38° |
| 2026-05-08 06:03 | -4.21758 | -168.37080 | 34911 ft | 506 kts | 38° |
| 2026-05-08 06:04 | -4.16277 | -168.32679 | 34915 ft | 506 kts | 38° |
| 2026-05-08 06:04 | -4.10784 | -168.28269 | 34910 ft | 506 kts | 38° |
| 2026-05-08 06:05 | -4.05291 | -168.23861 | 34907 ft | 506 kts | 38° |
| 2026-05-08 06:05 | -3.99805 | -168.19458 | 34910 ft | 505 kts | 38° |
| 2026-05-08 06:06 | -3.94317 | -168.15054 | 34918 ft | 505 kts | 38° |
| 2026-05-08 06:06 | -3.88840 | -168.10660 | 34913 ft | 505 kts | 38° |
| 2026-05-08 06:07 | -3.83354 | -168.06260 | 34912 ft | 505 kts | 38° |
| 2026-05-08 06:07 | -3.77861 | -168.01855 | 34913 ft | 505 kts | 38° |
| 2026-05-08 06:08 | -3.72381 | -167.97460 | 34915 ft | 505 kts | 38° |
| 2026-05-08 06:08 | -3.66895 | -167.93063 | 34916 ft | 505 kts | 38° |
| 2026-05-08 06:09 | -3.61447 | -167.88695 | 34914 ft | 504 kts | 38° |
| 2026-05-08 06:09 | -3.55972 | -167.84307 | 34911 ft | 504 kts | 38° |
| 2026-05-08 06:10 | -3.50486 | -167.79912 | 34918 ft | 503 kts | 38° |
| 2026-05-08 06:10 | -3.45019 | -167.75531 | 34915 ft | 503 kts | 38° |
| 2026-05-08 06:11 | -3.39549 | -167.71150 | 34917 ft | 503 kts | 38° |
| 2026-05-08 06:11 | -3.34125 | -167.66805 | 34916 ft | 502 kts | 38° |
| 2026-05-08 06:12 | -3.28669 | -167.62435 | 34914 ft | 502 kts | 38° |
| 2026-05-08 06:12 | -3.23204 | -167.58059 | 34914 ft | 502 kts | 38° |
| 2026-05-08 06:13 | -3.17742 | -167.53687 | 34915 ft | 502 kts | 38° |
| 2026-05-08 06:13 | -3.12281 | -167.49315 | 34917 ft | 503 kts | 38° |
| 2026-05-08 06:14 | -3.06858 | -167.44974 | 34915 ft | 503 kts | 38° |
| 2026-05-08 06:14 | -3.01395 | -167.40603 | 34915 ft | 502 kts | 38° |
| 2026-05-08 06:15 | -2.95934 | -167.36233 | 34916 ft | 501 kts | 38° |
| 2026-05-08 06:15 | -2.90492 | -167.31878 | 34910 ft | 500 kts | 38° |
| 2026-05-08 06:16 | -2.85055 | -167.27529 | 34913 ft | 500 kts | 38° |
| 2026-05-08 06:16 | -2.79613 | -167.23176 | 34912 ft | 501 kts | 38° |
| 2026-05-08 06:17 | -2.71445 | -167.16643 | 34909 ft | 501 kts | 38° |
| 2026-05-08 06:17 | -2.66028 | -167.12312 | 34911 ft | 501 kts | 38° |
| 2026-05-08 06:18 | -2.60576 | -167.07953 | 34912 ft | 502 kts | 38° |
| 2026-05-08 06:18 | -2.55127 | -167.03596 | 34913 ft | 502 kts | 38° |
| 2026-05-08 06:19 | -2.49675 | -166.99238 | 34912 ft | 501 kts | 38° |
| 2026-05-08 06:19 | -2.44228 | -166.94884 | 34912 ft | 501 kts | 38° |
| 2026-05-08 06:20 | -2.38789 | -166.90538 | 34912 ft | 500 kts | 38° |
| 2026-05-08 06:20 | -2.33377 | -166.86213 | 34912 ft | 500 kts | 38° |
| 2026-05-08 06:21 | -2.27939 | -166.81868 | 34913 ft | 500 kts | 38° |
| 2026-05-08 06:21 | -2.22514 | -166.77534 | 34909 ft | 499 kts | 38° |
| 2026-05-08 06:22 | -2.17994 | -166.73923 | 34911 ft | 500 kts | 38° |
| 2026-05-08 06:22 | -2.12538 | -166.69565 | 34913 ft | 501 kts | 38° |
| 2026-05-08 06:23 | -2.07088 | -166.65212 | 34913 ft | 501 kts | 38° |
| 2026-05-08 06:23 | -2.01640 | -166.60860 | 34916 ft | 501 kts | 38° |
| 2026-05-08 06:24 | -1.96199 | -166.56516 | 34915 ft | 500 kts | 38° |
| 2026-05-08 06:24 | -1.90763 | -166.52175 | 34914 ft | 500 kts | 38° |
| 2026-05-08 06:25 | -1.85354 | -166.47855 | 34913 ft | 500 kts | 38° |
| 2026-05-08 06:25 | -1.79927 | -166.43523 | 34917 ft | 499 kts | 38° |
| 2026-05-08 06:26 | -1.74505 | -166.39194 | 34913 ft | 498 kts | 38° |
| 2026-05-08 06:26 | -1.69083 | -166.34867 | 34916 ft | 498 kts | 38° |
| 2026-05-08 06:27 | -1.63664 | -166.30541 | 34915 ft | 497 kts | 38° |
| 2026-05-08 06:27 | -1.58257 | -166.26225 | 34914 ft | 497 kts | 38° |
| 2026-05-08 06:28 | -1.52877 | -166.21931 | 34911 ft | 497 kts | 38° |
| 2026-05-08 06:28 | -1.47465 | -166.17613 | 34916 ft | 498 kts | 38° |
| 2026-05-08 06:29 | -1.42051 | -166.13292 | 34917 ft | 498 kts | 38° |
| 2026-05-08 06:29 | -1.36634 | -166.08970 | 34919 ft | 497 kts | 38° |
| 2026-05-08 06:30 | -1.31219 | -166.04649 | 34918 ft | 497 kts | 38° |
| 2026-05-08 06:30 | -1.25839 | -166.00357 | 34915 ft | 497 kts | 38° |
| 2026-05-08 06:31 | -1.20440 | -165.96049 | 34916 ft | 496 kts | 38° |
| 2026-05-08 06:31 | -1.15036 | -165.91738 | 34917 ft | 496 kts | 38° |
| 2026-05-08 06:32 | -1.09643 | -165.87436 | 34914 ft | 496 kts | 38° |
| 2026-05-08 06:32 | -1.04281 | -165.83159 | 34916 ft | 496 kts | 38° |
| 2026-05-08 06:33 | -0.98887 | -165.78856 | 34918 ft | 496 kts | 38° |
| 2026-05-08 06:33 | -0.93496 | -165.74556 | 34914 ft | 496 kts | 38° |
| 2026-05-08 06:34 | -0.88099 | -165.70252 | 34917 ft | 495 kts | 38° |
| 2026-05-08 06:34 | -0.82714 | -165.65957 | 34923 ft | 495 kts | 38° |
| 2026-05-08 06:35 | -0.77336 | -165.61668 | 34917 ft | 495 kts | 38° |
| 2026-05-08 06:35 | -0.71955 | -165.57377 | 34916 ft | 494 kts | 38° |
| 2026-05-08 06:36 | -0.66617 | -165.53119 | 34917 ft | 494 kts | 38° |
| 2026-05-08 06:36 | -0.61244 | -165.48835 | 34919 ft | 493 kts | 38° |
| 2026-05-08 06:37 | -0.55881 | -165.44558 | 34917 ft | 493 kts | 38° |
| 2026-05-08 06:37 | -0.50520 | -165.40283 | 34918 ft | 493 kts | 38° |
| 2026-05-08 06:38 | -0.45161 | -165.36010 | 34913 ft | 492 kts | 38° |
| 2026-05-08 06:38 | -0.39809 | -165.31743 | 34916 ft | 491 kts | 38° |
| 2026-05-08 06:39 | -0.34493 | -165.27504 | 34917 ft | 491 kts | 38° |
| 2026-05-08 06:39 | -0.29152 | -165.23245 | 34918 ft | 491 kts | 38° |
| 2026-05-08 06:40 | -0.23811 | -165.18987 | 34920 ft | 491 kts | 38° |
| 2026-05-08 06:40 | -0.18464 | -165.14723 | 34920 ft | 491 kts | 38° |
| 2026-05-08 06:41 | -0.13130 | -165.10470 | 34920 ft | 490 kts | 38° |
| 2026-05-08 06:41 | -0.07787 | -165.06210 | 34922 ft | 490 kts | 38° |
| 2026-05-08 06:42 | -0.02496 | -165.01992 | 34920 ft | 490 kts | 38° |
| 2026-05-08 06:42 | 0.02845 | -164.97744 | 34922 ft | 490 kts | 38° |
| 2026-05-08 06:43 | 0.08201 | -164.93535 | 34922 ft | 490 kts | 38° |
| 2026-05-08 06:43 | 0.13544 | -164.89308 | 34921 ft | 489 kts | 38° |
| 2026-05-08 06:44 | 0.18885 | -164.85098 | 34919 ft | 489 kts | 38° |
| 2026-05-08 06:44 | 0.24225 | -164.80880 | 34923 ft | 489 kts | 38° |
| 2026-05-08 06:45 | 0.29569 | -164.76663 | 34921 ft | 489 kts | 38° |
| 2026-05-08 06:45 | 0.34910 | -164.72447 | 34922 ft | 489 kts | 38° |
| 2026-05-08 06:46 | 0.40211 | -164.68262 | 34921 ft | 488 kts | 38° |
| 2026-05-08 06:46 | 0.45547 | -164.64051 | 34923 ft | 488 kts | 38° |
| 2026-05-08 06:47 | 0.50888 | -164.59834 | 34924 ft | 488 kts | 38° |
| 2026-05-08 06:47 | 0.56182 | -164.55656 | 34923 ft | 488 kts | 38° |
| 2026-05-08 06:48 | 0.61513 | -164.51447 | 34924 ft | 488 kts | 38° |
| 2026-05-08 06:48 | 0.66841 | -164.47241 | 34920 ft | 487 kts | 38° |
| 2026-05-08 06:49 | 0.72163 | -164.43040 | 34922 ft | 487 kts | 38° |
| 2026-05-08 06:49 | 0.77487 | -164.38837 | 34927 ft | 487 kts | 38° |
| 2026-05-08 06:50 | 0.82814 | -164.34631 | 34924 ft | 487 kts | 38° |
| 2026-05-08 06:50 | 0.88127 | -164.30437 | 34924 ft | 487 kts | 38° |
| 2026-05-08 06:51 | 0.93406 | -164.26268 | 34924 ft | 486 kts | 38° |
| 2026-05-08 06:51 | 0.98727 | -164.22067 | 34924 ft | 486 kts | 38° |
| 2026-05-08 06:52 | 1.04044 | -164.17868 | 34926 ft | 486 kts | 38° |
| 2026-05-08 06:52 | 1.09355 | -164.13675 | 34924 ft | 486 kts | 38° |
| 2026-05-08 06:53 | 1.14636 | -164.09504 | 34923 ft | 486 kts | 38° |
| 2026-05-08 06:53 | 1.19940 | -164.05316 | 34923 ft | 485 kts | 38° |
| 2026-05-08 06:54 | 1.25234 | -164.01134 | 34925 ft | 485 kts | 38° |
| 2026-05-08 06:54 | 1.30533 | -163.96950 | 34926 ft | 485 kts | 38° |
| 2026-05-08 06:55 | 1.35828 | -163.92768 | 34924 ft | 485 kts | 39° |
| 2026-05-08 06:55 | 1.41125 | -163.88583 | 34923 ft | 485 kts | 39° |
| 2026-05-08 06:56 | 1.46418 | -163.84402 | 34924 ft | 485 kts | 39° |
| 2026-05-08 06:56 | 1.51676 | -163.80248 | 34922 ft | 484 kts | 39° |
| 2026-05-08 06:57 | 1.56972 | -163.76064 | 34928 ft | 485 kts | 39° |
| 2026-05-08 06:57 | 1.62273 | -163.71876 | 34929 ft | 485 kts | 39° |
| 2026-05-08 06:58 | 1.67571 | -163.67690 | 34930 ft | 485 kts | 39° |
| 2026-05-08 06:58 | 1.72867 | -163.63504 | 34928 ft | 485 kts | 39° |
| 2026-05-08 06:59 | 1.78130 | -163.59346 | 34928 ft | 485 kts | 39° |
| 2026-05-08 06:59 | 1.83430 | -163.55157 | 34930 ft | 485 kts | 39° |
| 2026-05-08 07:00 | 1.88719 | -163.50977 | 34931 ft | 484 kts | 39° |
| 2026-05-08 07:00 | 1.94004 | -163.46799 | 34931 ft | 484 kts | 39° |
| 2026-05-08 07:01 | 1.99264 | -163.42642 | 34926 ft | 484 kts | 39° |
| 2026-05-08 07:01 | 2.04549 | -163.38463 | 34924 ft | 484 kts | 39° |
| 2026-05-08 07:02 | 2.09845 | -163.34275 | 34925 ft | 485 kts | 39° |
| 2026-05-08 07:02 | 2.15143 | -163.30086 | 34926 ft | 485 kts | 39° |
| 2026-05-08 07:03 | 2.20444 | -163.25894 | 34926 ft | 485 kts | 39° |